sensor_id;sensor_type;location;lat;lon;timestamp;pressure;altitude;pressure_sealevel;temperature;humidity
43804;BME280;29430;52.924;-2.388;2023-04-21T00:00:07;99610.03;;;8.19;78.61
43804;BME280;29430;52.924;-2.388;2023-04-21T00:05:00;99602.75;;;8.20;79.19
43804;BME280;29430;52.924;-2.388;2023-04-21T00:09:52;99615.03;;;8.22;79.02
43804;BME280;29430;52.924;-2.388;2023-04-21T00:14:44;99584.47;;;8.15;79.76
43804;BME280;29430;52.924;-2.388;2023-04-21T00:19:35;99587.38;;;8.14;82.57
43804;BME280;29430;52.924;-2.388;2023-04-21T00:24:27;99581.34;;;8.12;83.91
43804;BME280;29430;52.924;-2.388;2023-04-21T00:29:19;99583.84;;;8.06;85.29
43804;BME280;29430;52.924;-2.388;2023-04-21T00:34:11;99585.47;;;8.01;85.87
43804;BME280;29430;52.924;-2.388;2023-04-21T00:39:02;99573.41;;;7.97;86.75
43804;BME280;29430;52.924;-2.388;2023-04-21T00:44:05;99571.31;;;7.92;86.53
43804;BME280;29430;52.924;-2.388;2023-04-21T00:48:57;99554.50;;;7.83;87.70
43804;BME280;29430;52.924;-2.388;2023-04-21T00:53:49;99551.78;;;7.83;87.33
43804;BME280;29430;52.924;-2.388;2023-04-21T00:58:42;99553.84;;;7.81;87.11
43804;BME280;29430;52.924;-2.388;2023-04-21T01:03:35;99547.63;;;7.81;87.82
43804;BME280;29430;52.924;-2.388;2023-04-21T01:08:28;99541.59;;;7.79;87.30
43804;BME280;29430;52.924;-2.388;2023-04-21T01:13:19;99542.22;;;7.74;87.38
43804;BME280;29430;52.924;-2.388;2023-04-21T01:18:14;99537.03;;;7.73;87.44
43804;BME280;29430;52.924;-2.388;2023-04-21T01:23:07;99530.97;;;7.70;87.41
43804;BME280;29430;52.924;-2.388;2023-04-21T01:27:58;99535.13;;;7.73;86.79
43804;BME280;29430;52.924;-2.388;2023-04-21T01:32:50;99531.63;;;7.73;87.23
43804;BME280;29430;52.924;-2.388;2023-04-21T01:37:42;99515.81;;;7.69;86.66
43804;BME280;29430;52.924;-2.388;2023-04-21T01:42:37;99515.19;;;7.67;87.31
43804;BME280;29430;52.924;-2.388;2023-04-21T01:47:29;99509.16;;;7.65;87.68
43804;BME280;29430;52.924;-2.388;2023-04-21T01:52:21;99500.03;;;7.66;87.45
43804;BME280;29430;52.924;-2.388;2023-04-21T01:57:13;99508.34;;;7.65;87.86
43804;BME280;29430;52.924;-2.388;2023-04-21T02:02:05;99502.69;;;7.60;86.82
43804;BME280;29430;52.924;-2.388;2023-04-21T02:06:57;99495.66;;;7.59;87.71
43804;BME280;29430;52.924;-2.388;2023-04-21T02:11:48;99498.34;;;7.59;87.22
43804;BME280;29430;52.924;-2.388;2023-04-21T02:16:40;99500.22;;;7.58;88.19
43804;BME280;29430;52.924;-2.388;2023-04-21T02:21:32;99484.41;;;7.55;88.52
43804;BME280;29430;52.924;-2.388;2023-04-21T02:26:24;99485.47;;;7.54;88.63
43804;BME280;29430;52.924;-2.388;2023-04-21T02:31:16;99478.59;;;7.51;88.14
43804;BME280;29430;52.924;-2.388;2023-04-21T02:36:09;99471.75;;;7.49;88.02
43804;BME280;29430;52.924;-2.388;2023-04-21T02:41:01;99470.09;;;7.48;88.21
43804;BME280;29430;52.924;-2.388;2023-04-21T02:45:52;99463.84;;;7.47;88.34
43804;BME280;29430;52.924;-2.388;2023-04-21T02:50:44;99469.25;;;7.47;88.06
43804;BME280;29430;52.924;-2.388;2023-04-21T02:55:35;99455.97;;;7.46;87.77
43804;BME280;29430;52.924;-2.388;2023-04-21T03:00:27;99448.91;;;7.45;88.53
43804;BME280;29430;52.924;-2.388;2023-04-21T03:05:19;99433.56;;;7.45;88.46
43804;BME280;29430;52.924;-2.388;2023-04-21T03:10:11;99432.72;;;7.45;88.76
43804;BME280;29430;52.924;-2.388;2023-04-21T03:15:03;99427.34;;;7.45;88.62
43804;BME280;29430;52.924;-2.388;2023-04-21T03:19:55;99426.69;;;7.43;89.19
43804;BME280;29430;52.924;-2.388;2023-04-21T03:24:46;99431.69;;;7.46;88.36
43804;BME280;29430;52.924;-2.388;2023-04-21T03:29:38;99427.53;;;7.43;88.71
43804;BME280;29430;52.924;-2.388;2023-04-21T03:34:30;99405.31;;;7.41;89.21
43804;BME280;29430;52.924;-2.388;2023-04-21T03:39:21;99411.75;;;7.40;89.64
43804;BME280;29430;52.924;-2.388;2023-04-21T03:44:13;99391.19;;;7.39;89.39
43804;BME280;29430;52.924;-2.388;2023-04-21T03:49:05;99397.63;;;7.38;89.56
43804;BME280;29430;52.924;-2.388;2023-04-21T03:53:57;99399.09;;;7.34;89.87
43804;BME280;29430;52.924;-2.388;2023-04-21T03:58:49;99393.47;;;7.35;89.43
43804;BME280;29430;52.924;-2.388;2023-04-21T04:03:41;99374.16;;;7.32;90.06
43804;BME280;29430;52.924;-2.388;2023-04-21T04:08:33;99373.34;;;7.31;88.81
43804;BME280;29430;52.924;-2.388;2023-04-21T04:13:24;99365.03;;;7.26;88.96
43804;BME280;29430;52.924;-2.388;2023-04-21T04:18:16;99355.06;;;7.27;89.15
43804;BME280;29430;52.924;-2.388;2023-04-21T04:23:08;99347.59;;;7.29;89.58
43804;BME280;29430;52.924;-2.388;2023-04-21T04:28:00;99324.13;;;7.23;90.02
43804;BME280;29430;52.924;-2.388;2023-04-21T04:32:51;99312.72;;;7.21;90.60
43804;BME280;29430;52.924;-2.388;2023-04-21T04:37:43;99318.13;;;7.21;90.65
43804;BME280;29430;52.924;-2.388;2023-04-21T04:42:35;99313.13;;;7.17;90.47
43804;BME280;29430;52.924;-2.388;2023-04-21T04:47:27;99299.88;;;7.16;90.43
43804;BME280;29430;52.924;-2.388;2023-04-21T04:52:19;99295.50;;;7.15;91.33
43804;BME280;29430;52.924;-2.388;2023-04-21T04:57:11;99269.78;;;7.19;92.12
43804;BME280;29430;52.924;-2.388;2023-04-21T05:02:03;99263.75;;;7.24;92.32
43804;BME280;29430;52.924;-2.388;2023-04-21T05:06:55;99262.53;;;7.26;92.05
43804;BME280;29430;52.924;-2.388;2023-04-21T05:11:46;99249.03;;;7.26;92.53
43804;BME280;29430;52.924;-2.388;2023-04-21T05:16:38;99231.38;;;7.30;92.45
43804;BME280;29430;52.924;-2.388;2023-04-21T05:21:30;99226.22;;;7.35;93.17
43804;BME280;29430;52.924;-2.388;2023-04-21T05:26:22;99227.66;;;7.38;92.48
43804;BME280;29430;52.924;-2.388;2023-04-21T05:31:14;99229.91;;;7.41;92.53
43804;BME280;29430;52.924;-2.388;2023-04-21T05:36:07;99240.09;;;7.46;92.82
43804;BME280;29430;52.924;-2.388;2023-04-21T05:40:59;99237.41;;;7.39;91.80
43804;BME280;29430;52.924;-2.388;2023-04-21T05:45:51;99233.69;;;7.40;92.66
43804;BME280;29430;52.924;-2.388;2023-04-21T05:50:43;99220.19;;;7.40;93.02
43804;BME280;29430;52.924;-2.388;2023-04-21T05:55:35;99207.09;;;7.44;92.70
43804;BME280;29430;52.924;-2.388;2023-04-21T06:00:27;99194.84;;;7.41;93.86
43804;BME280;29430;52.924;-2.388;2023-04-21T06:05:19;99174.53;;;7.39;93.95
43804;BME280;29430;52.924;-2.388;2023-04-21T06:10:12;99172.03;;;7.37;94.83
43804;BME280;29430;52.924;-2.388;2023-04-21T06:15:04;99157.72;;;7.37;95.42
43804;BME280;29430;52.924;-2.388;2023-04-21T06:19:56;99137.59;;;7.39;96.27
43804;BME280;29430;52.924;-2.388;2023-04-21T06:24:48;99139.44;;;7.45;96.72
43804;BME280;29430;52.924;-2.388;2023-04-21T06:29:40;99122.63;;;7.43;97.20
43804;BME280;29430;52.924;-2.388;2023-04-21T06:34:33;99108.50;;;7.41;98.05
43804;BME280;29430;52.924;-2.388;2023-04-21T06:39:25;99090.88;;;7.45;98.20
43804;BME280;29430;52.924;-2.388;2023-04-21T06:44:17;99084.44;;;7.46;98.54
43804;BME280;29430;52.924;-2.388;2023-04-21T06:49:09;99070.53;;;7.49;99.07
43804;BME280;29430;52.924;-2.388;2023-04-21T06:54:01;99069.03;;;7.53;99.46
43804;BME280;29430;52.924;-2.388;2023-04-21T06:58:53;99057.81;;;7.57;99.79
43804;BME280;29430;52.924;-2.388;2023-04-21T07:03:45;99070.28;;;7.58;99.96
43804;BME280;29430;52.924;-2.388;2023-04-21T07:08:37;99074.41;;;7.60;100.00
43804;BME280;29430;52.924;-2.388;2023-04-21T07:13:29;99072.31;;;7.62;100.00
43804;BME280;29430;52.924;-2.388;2023-04-21T07:18:21;99066.50;;;7.65;100.00
43804;BME280;29430;52.924;-2.388;2023-04-21T07:23:12;99071.84;;;7.72;100.00
43804;BME280;29430;52.924;-2.388;2023-04-21T07:28:04;99063.31;;;7.75;100.00
43804;BME280;29430;52.924;-2.388;2023-04-21T07:32:56;99058.13;;;7.80;100.00
43804;BME280;29430;52.924;-2.388;2023-04-21T07:37:48;99042.47;;;7.89;100.00
43804;BME280;29430;52.924;-2.388;2023-04-21T07:42:39;99025.63;;;7.94;100.00
43804;BME280;29430;52.924;-2.388;2023-04-21T07:47:31;99028.13;;;7.95;100.00
43804;BME280;29430;52.924;-2.388;2023-04-21T07:52:23;98993.84;;;7.96;100.00
43804;BME280;29430;52.924;-2.388;2023-04-21T07:57:15;98997.09;;;8.04;100.00
43804;BME280;29430;52.924;-2.388;2023-04-21T08:02:07;98988.34;;;8.09;100.00
43804;BME280;29430;52.924;-2.388;2023-04-21T08:06:59;98989.78;;;8.12;100.00
43804;BME280;29430;52.924;-2.388;2023-04-21T08:11:50;98994.38;;;8.11;100.00
43804;BME280;29430;52.924;-2.388;2023-04-21T08:16:42;98989.78;;;8.12;100.00
43804;BME280;29430;52.924;-2.388;2023-04-21T08:21:34;98985.41;;;8.11;100.00
43804;BME280;29430;52.924;-2.388;2023-04-21T08:26:26;98970.22;;;8.16;100.00
43804;BME280;29430;52.924;-2.388;2023-04-21T08:31:20;98979.97;;;8.17;100.00
43804;BME280;29430;52.924;-2.388;2023-04-21T08:36:12;98964.38;;;8.19;100.00
43804;BME280;29430;52.924;-2.388;2023-04-21T08:41:19;98980.59;;;8.19;100.00
43804;BME280;29430;52.924;-2.388;2023-04-21T08:46:11;98992.16;;;8.27;100.00
43804;BME280;29430;52.924;-2.388;2023-04-21T08:51:04;98982.41;;;8.25;100.00
43804;BME280;29430;52.924;-2.388;2023-04-21T08:55:57;98989.25;;;8.28;100.00
43804;BME280;29430;52.924;-2.388;2023-04-21T09:01:01;98985.25;;;8.31;100.00
43804;BME280;29430;52.924;-2.388;2023-04-21T09:06:03;98989.41;;;8.33;100.00
43804;BME280;29430;52.924;-2.388;2023-04-21T09:10:57;98997.28;;;8.35;100.00
43804;BME280;29430;52.924;-2.388;2023-04-21T09:15:50;98985.22;;;8.37;100.00
43804;BME280;29430;52.924;-2.388;2023-04-21T09:20:46;98972.53;;;8.38;100.00
43804;BME280;29430;52.924;-2.388;2023-04-21T09:25:39;98969.59;;;8.39;100.00
43804;BME280;29430;52.924;-2.388;2023-04-21T09:30:34;98974.56;;;8.42;100.00
43804;BME280;29430;52.924;-2.388;2023-04-21T09:35:27;98969.16;;;8.42;100.00
43804;BME280;29430;52.924;-2.388;2023-04-21T09:40:19;98972.91;;;8.41;100.00
43804;BME280;29430;52.924;-2.388;2023-04-21T09:45:11;98965.44;;;8.44;100.00
43804;BME280;29430;52.924;-2.388;2023-04-21T09:50:10;98957.34;;;8.44;100.00
43804;BME280;29430;52.924;-2.388;2023-04-21T09:55:10;98963.56;;;8.44;100.00
43804;BME280;29430;52.924;-2.388;2023-04-21T10:00:05;98952.75;;;8.44;100.00
43804;BME280;29430;52.924;-2.388;2023-04-21T10:05:04;98949.97;;;8.51;100.00
43804;BME280;29430;52.924;-2.388;2023-04-21T10:09:59;98941.81;;;8.57;100.00
43804;BME280;29430;52.924;-2.388;2023-04-21T10:14:52;98940.47;;;8.67;100.00
43804;BME280;29430;52.924;-2.388;2023-04-21T10:19:49;98935.56;;;8.75;100.00
43804;BME280;29430;52.924;-2.388;2023-04-21T10:24:41;98932.38;;;8.85;100.00
43804;BME280;29430;52.924;-2.388;2023-04-21T10:29:33;98917.25;;;8.96;100.00
43804;BME280;29430;52.924;-2.388;2023-04-21T10:39:28;98913.91;;;9.12;100.00
43804;BME280;29430;52.924;-2.388;2023-04-21T10:44:21;98920.06;;;9.20;100.00
43804;BME280;29430;52.924;-2.388;2023-04-21T10:49:24;98916.91;;;9.23;100.00
43804;BME280;29430;52.924;-2.388;2023-04-21T10:54:15;98911.63;;;9.28;100.00
43804;BME280;29430;52.924;-2.388;2023-04-21T10:59:07;98898.47;;;9.31;100.00
43804;BME280;29430;52.924;-2.388;2023-04-21T11:03:59;98906.94;;;9.35;100.00
43804;BME280;29430;52.924;-2.388;2023-04-21T11:08:58;98901.91;;;9.39;100.00
43804;BME280;29430;52.924;-2.388;2023-04-21T11:13:51;98890.72;;;9.35;99.93
43804;BME280;29430;52.924;-2.388;2023-04-21T11:18:43;98896.47;;;9.39;100.00
43804;BME280;29430;52.924;-2.388;2023-04-21T11:23:38;98894.25;;;9.36;100.00
43804;BME280;29430;52.924;-2.388;2023-04-21T11:28:31;98898.72;;;9.30;100.00
43804;BME280;29430;52.924;-2.388;2023-04-21T11:33:23;98893.38;;;9.23;100.00
43804;BME280;29430;52.924;-2.388;2023-04-21T11:38:15;98895.03;;;9.24;100.00
43804;BME280;29430;52.924;-2.388;2023-04-21T11:43:09;98873.44;;;9.36;100.00
43804;BME280;29430;52.924;-2.388;2023-04-21T11:48:16;98866.88;;;9.44;100.00
43804;BME280;29430;52.924;-2.388;2023-04-21T11:53:08;98882.03;;;9.45;100.00
43804;BME280;29430;52.924;-2.388;2023-04-21T11:58:00;98887.81;;;9.48;100.00
43804;BME280;29430;52.924;-2.388;2023-04-21T12:02:54;98868.69;;;9.74;100.00
43804;BME280;29430;52.924;-2.388;2023-04-21T12:07:47;98865.75;;;9.99;100.00
43804;BME280;29430;52.924;-2.388;2023-04-21T12:12:40;98863.28;;;10.21;100.00
43804;BME280;29430;52.924;-2.388;2023-04-21T12:17:38;98854.78;;;10.29;96.05
43804;BME280;29430;52.924;-2.388;2023-04-21T12:22:30;98878.72;;;10.32;95.17
43804;BME280;29430;52.924;-2.388;2023-04-21T12:27:22;98871.19;;;10.34;94.07
43804;BME280;29430;52.924;-2.388;2023-04-21T12:32:14;98876.81;;;10.56;92.30
43804;BME280;29430;52.924;-2.388;2023-04-21T12:37:06;98872.19;;;10.69;89.72
43804;BME280;29430;52.924;-2.388;2023-04-21T12:41:58;98875.53;;;11.00;87.93
43804;BME280;29430;52.924;-2.388;2023-04-21T12:46:50;98883.00;;;11.21;84.86
43804;BME280;29430;52.924;-2.388;2023-04-21T12:51:42;98882.09;;;11.16;81.69
43804;BME280;29430;52.924;-2.388;2023-04-21T12:56:34;98869.41;;;11.21;82.26
43804;BME280;29430;52.924;-2.388;2023-04-21T13:01:26;98882.66;;;11.46;82.16
43804;BME280;29430;52.924;-2.388;2023-04-21T13:06:18;98868.91;;;11.53;79.61
43804;BME280;29430;52.924;-2.388;2023-04-21T13:11:10;98860.53;;;11.72;77.71
43804;BME280;29430;52.924;-2.388;2023-04-21T13:16:02;98850.84;;;11.76;76.50
43804;BME280;29430;52.924;-2.388;2023-04-21T13:20:53;98860.88;;;11.92;74.77
43804;BME280;29430;52.924;-2.388;2023-04-21T13:25:45;98862.75;;;11.92;73.00
43804;BME280;29430;52.924;-2.388;2023-04-21T13:30:37;98861.22;;;11.79;72.34
43804;BME280;29430;52.924;-2.388;2023-04-21T13:35:29;98857.56;;;11.73;73.30
43804;BME280;29430;52.924;-2.388;2023-04-21T13:40:20;98852.56;;;11.65;73.45
43804;BME280;29430;52.924;-2.388;2023-04-21T13:45:12;98843.66;;;11.70;72.47
43804;BME280;29430;52.924;-2.388;2023-04-21T13:50:04;98843.44;;;11.71;72.53
43804;BME280;29430;52.924;-2.388;2023-04-21T13:54:56;98834.28;;;11.60;73.55
43804;BME280;29430;52.924;-2.388;2023-04-21T13:59:48;98834.50;;;11.42;72.07
43804;BME280;29430;52.924;-2.388;2023-04-21T14:04:40;98836.13;;;11.26;73.12
43804;BME280;29430;52.924;-2.388;2023-04-21T14:09:33;98828.81;;;11.26;75.39
43804;BME280;29430;52.924;-2.388;2023-04-21T14:14:25;98818.72;;;11.39;75.45
43804;BME280;29430;52.924;-2.388;2023-04-21T14:19:29;98815.66;;;11.52;72.41
43804;BME280;29430;52.924;-2.388;2023-04-21T14:24:23;98804.22;;;11.50;64.39
43804;BME280;29430;52.924;-2.388;2023-04-21T14:29:17;98813.19;;;11.51;65.02
43804;BME280;29430;52.924;-2.388;2023-04-21T14:34:08;98808.94;;;11.55;64.36
43804;BME280;29430;52.924;-2.388;2023-04-21T14:39:00;98810.34;;;11.74;65.23
43804;BME280;29430;52.924;-2.388;2023-04-21T14:43:51;98805.63;;;11.87;64.98
43804;BME280;29430;52.924;-2.388;2023-04-21T14:48:46;98810.31;;;11.91;64.56
43804;BME280;29430;52.924;-2.388;2023-04-21T14:53:38;98832.88;;;11.75;64.94
43804;BME280;29430;52.924;-2.388;2023-04-21T14:58:31;98791.63;;;11.61;66.86
43804;BME280;29430;52.924;-2.388;2023-04-21T15:03:22;98800.53;;;11.73;67.80
43804;BME280;29430;52.924;-2.388;2023-04-21T15:08:14;98796.31;;;11.82;67.49
43804;BME280;29430;52.924;-2.388;2023-04-21T15:13:09;98789.63;;;11.90;67.79
43804;BME280;29430;52.924;-2.388;2023-04-21T15:18:02;98782.72;;;11.82;66.47
43804;BME280;29430;52.924;-2.388;2023-04-21T15:22:53;98785.22;;;11.67;67.32
43804;BME280;29430;52.924;-2.388;2023-04-21T15:27:45;98787.75;;;11.57;68.79
43804;BME280;29430;52.924;-2.388;2023-04-21T15:32:37;98777.06;;;11.50;70.82
43804;BME280;29430;52.924;-2.388;2023-04-21T15:37:28;98785.97;;;11.45;71.18
43804;BME280;29430;52.924;-2.388;2023-04-21T15:42:20;98759.13;;;11.32;70.93
43804;BME280;29430;52.924;-2.388;2023-04-21T15:47:12;98754.84;;;11.19;71.41
43804;BME280;29430;52.924;-2.388;2023-04-21T15:52:05;98750.91;;;11.10;70.73
43804;BME280;29430;52.924;-2.388;2023-04-21T15:56:57;98753.38;;;11.11;71.17
43804;BME280;29430;52.924;-2.388;2023-04-21T16:01:49;98742.81;;;11.15;69.98
43804;BME280;29430;52.924;-2.388;2023-04-21T16:06:40;98741.47;;;11.29;68.21
43804;BME280;29430;52.924;-2.388;2023-04-21T16:11:32;98743.25;;;11.41;68.11
43804;BME280;29430;52.924;-2.388;2023-04-21T16:16:24;98727.94;;;11.52;68.47
43804;BME280;29430;52.924;-2.388;2023-04-21T16:21:16;98740.59;;;11.63;67.90
43804;BME280;29430;52.924;-2.388;2023-04-21T16:26:08;98729.34;;;11.71;67.57
43804;BME280;29430;52.924;-2.388;2023-04-21T16:31:00;98717.47;;;11.77;67.10
43804;BME280;29430;52.924;-2.388;2023-04-21T16:35:51;98701.53;;;11.86;67.55
43804;BME280;29430;52.924;-2.388;2023-04-21T16:40:45;98724.25;;;11.97;68.41
43804;BME280;29430;52.924;-2.388;2023-04-21T16:45:37;98715.28;;;11.96;66.75
43804;BME280;29430;52.924;-2.388;2023-04-21T16:50:29;98709.38;;;11.82;66.83
43804;BME280;29430;52.924;-2.388;2023-04-21T16:55:21;98709.06;;;11.79;67.12
43804;BME280;29430;52.924;-2.388;2023-04-21T17:00:13;98700.81;;;11.74;67.65
43804;BME280;29430;52.924;-2.388;2023-04-21T17:05:05;98695.31;;;11.69;69.20
43804;BME280;29430;52.924;-2.388;2023-04-21T17:09:56;98686.63;;;11.67;68.60
43804;BME280;29430;52.924;-2.388;2023-04-21T17:14:48;98681.81;;;11.74;68.46
43804;BME280;29430;52.924;-2.388;2023-04-21T17:19:40;98689.16;;;11.73;68.62
43804;BME280;29430;52.924;-2.388;2023-04-21T17:24:31;98683.56;;;11.63;69.28
43804;BME280;29430;52.924;-2.388;2023-04-21T17:29:42;98691.09;;;11.56;68.67
43804;BME280;29430;52.924;-2.388;2023-04-21T17:34:34;98672.16;;;11.44;68.36
43804;BME280;29430;52.924;-2.388;2023-04-21T17:39:26;98669.19;;;11.45;69.41
43804;BME280;29430;52.924;-2.388;2023-04-21T17:44:17;98668.22;;;11.35;69.16
43804;BME280;29430;52.924;-2.388;2023-04-21T17:49:09;98685.25;;;11.30;69.57
43804;BME280;29430;52.924;-2.388;2023-04-21T17:54:01;98672.69;;;11.24;69.60
43804;BME280;29430;52.924;-2.388;2023-04-21T17:58:53;98674.72;;;11.17;70.52
43804;BME280;29430;52.924;-2.388;2023-04-21T18:03:45;98675.22;;;11.14;70.26
43804;BME280;29430;52.924;-2.388;2023-04-21T18:08:37;98676.56;;;11.11;71.00
43804;BME280;29430;52.924;-2.388;2023-04-21T18:13:29;98680.03;;;11.06;71.14
43804;BME280;29430;52.924;-2.388;2023-04-21T18:18:20;98672.88;;;11.00;71.33
43804;BME280;29430;52.924;-2.388;2023-04-21T18:23:12;98681.25;;;10.99;71.29
43804;BME280;29430;52.924;-2.388;2023-04-21T18:28:04;98679.34;;;10.99;71.36
43804;BME280;29430;52.924;-2.388;2023-04-21T18:32:55;98679.03;;;10.96;71.10
43804;BME280;29430;52.924;-2.388;2023-04-21T18:37:47;98687.66;;;10.92;71.61
43804;BME280;29430;52.924;-2.388;2023-04-21T18:42:39;98679.66;;;10.86;72.42
43804;BME280;29430;52.924;-2.388;2023-04-21T18:47:31;98678.66;;;10.75;73.49
43804;BME280;29430;52.924;-2.388;2023-04-21T18:52:23;98678.00;;;10.68;74.06
43804;BME280;29430;52.924;-2.388;2023-04-21T18:57:14;98673.81;;;10.60;74.57
43804;BME280;29430;52.924;-2.388;2023-04-21T19:02:08;98692.09;;;10.53;74.81
43804;BME280;29430;52.924;-2.388;2023-04-21T19:07:03;98684.38;;;10.45;75.86
43804;BME280;29430;52.924;-2.388;2023-04-21T19:11:58;98678.03;;;10.39;76.25
43804;BME280;29430;52.924;-2.388;2023-04-21T19:16:50;98687.00;;;10.39;76.97
43804;BME280;29430;52.924;-2.388;2023-04-21T19:21:43;98685.34;;;10.38;77.42
43804;BME280;29430;52.924;-2.388;2023-04-21T19:26:35;98682.06;;;10.36;77.91
43804;BME280;29430;52.924;-2.388;2023-04-21T19:31:26;98680.41;;;10.35;78.12
43804;BME280;29430;52.924;-2.388;2023-04-21T19:36:18;98671.91;;;10.32;78.51
43804;BME280;29430;52.924;-2.388;2023-04-21T19:41:10;98668.03;;;10.28;78.44
43804;BME280;29430;52.924;-2.388;2023-04-21T19:46:01;98666.28;;;10.21;79.06
43804;BME280;29430;52.924;-2.388;2023-04-21T19:50:53;98664.28;;;10.17;79.87
43804;BME280;29430;52.924;-2.388;2023-04-21T19:55:45;98654.75;;;10.14;79.80
43804;BME280;29430;52.924;-2.388;2023-04-21T20:00:37;98653.84;;;10.09;80.11
43804;BME280;29430;52.924;-2.388;2023-04-21T20:05:28;98661.75;;;10.10;80.21
43804;BME280;29430;52.924;-2.388;2023-04-21T20:10:20;98657.63;;;10.08;81.21
43804;BME280;29430;52.924;-2.388;2023-04-21T20:15:12;98654.56;;;10.04;81.60
43804;BME280;29430;52.924;-2.388;2023-04-21T20:20:04;98652.47;;;9.94;82.85
43804;BME280;29430;52.924;-2.388;2023-04-21T20:24:57;98649.81;;;9.82;83.57
43804;BME280;29430;52.924;-2.388;2023-04-21T20:29:48;98648.53;;;9.73;83.79
43804;BME280;29430;52.924;-2.388;2023-04-21T20:34:40;98647.25;;;9.64;84.84
43804;BME280;29430;52.924;-2.388;2023-04-21T20:39:32;98647.84;;;9.54;85.20
43804;BME280;29430;52.924;-2.388;2023-04-21T20:44:25;98650.34;;;9.44;86.18
43804;BME280;29430;52.924;-2.388;2023-04-21T20:49:21;98647.16;;;9.35;86.75
43804;BME280;29430;52.924;-2.388;2023-04-21T20:54:13;98639.41;;;9.27;87.19
43804;BME280;29430;52.924;-2.388;2023-04-21T20:59:05;98649.28;;;9.21;87.55
43804;BME280;29430;52.924;-2.388;2023-04-21T21:03:56;98646.94;;;9.13;87.98
43804;BME280;29430;52.924;-2.388;2023-04-21T21:08:51;98621.88;;;9.06;87.62
43804;BME280;29430;52.924;-2.388;2023-04-21T21:13:43;98615.28;;;9.02;88.02
43804;BME280;29430;52.924;-2.388;2023-04-21T21:18:35;98613.97;;;8.92;87.92
43804;BME280;29430;52.924;-2.388;2023-04-21T21:23:27;98614.34;;;8.84;88.46
43804;BME280;29430;52.924;-2.388;2023-04-21T21:28:19;98614.31;;;8.72;88.82
43804;BME280;29430;52.924;-2.388;2023-04-21T21:33:10;98602.56;;;8.67;89.00
43804;BME280;29430;52.924;-2.388;2023-04-21T21:38:02;98606.78;;;8.63;89.45
43804;BME280;29430;52.924;-2.388;2023-04-21T21:42:54;98606.53;;;8.52;89.63
43804;BME280;29430;52.924;-2.388;2023-04-21T21:47:45;98606.41;;;8.47;90.16
43804;BME280;29430;52.924;-2.388;2023-04-21T21:52:37;98611.03;;;8.40;90.34
43804;BME280;29430;52.924;-2.388;2023-04-21T21:57:29;98601.16;;;8.34;91.07
43804;BME280;29430;52.924;-2.388;2023-04-21T22:02:21;98603.97;;;8.27;91.38
43804;BME280;29430;52.924;-2.388;2023-04-21T22:07:12;98618.16;;;8.22;91.83
43804;BME280;29430;52.924;-2.388;2023-04-21T22:12:04;98617.19;;;8.17;91.79
43804;BME280;29430;52.924;-2.388;2023-04-21T22:16:57;98607.31;;;8.11;92.44
43804;BME280;29430;52.924;-2.388;2023-04-21T22:21:49;98602.00;;;8.04;92.89
43804;BME280;29430;52.924;-2.388;2023-04-21T22:26:43;98604.56;;;7.99;92.65
43804;BME280;29430;52.924;-2.388;2023-04-21T22:31:35;98596.31;;;7.94;93.10
43804;BME280;29430;52.924;-2.388;2023-04-21T22:36:27;98588.53;;;7.85;93.46
43804;BME280;29430;52.924;-2.388;2023-04-21T22:41:19;98579.69;;;7.78;94.18
43804;BME280;29430;52.924;-2.388;2023-04-21T22:46:11;98578.53;;;7.74;93.78
43804;BME280;29430;52.924;-2.388;2023-04-21T22:51:04;98574.03;;;7.68;94.57
43804;BME280;29430;52.924;-2.388;2023-04-21T22:55:56;98570.59;;;7.61;94.96
43804;BME280;29430;52.924;-2.388;2023-04-21T23:00:48;98566.69;;;7.57;95.06
43804;BME280;29430;52.924;-2.388;2023-04-21T23:05:40;98563.63;;;7.53;95.42
43804;BME280;29430;52.924;-2.388;2023-04-21T23:10:32;98547.88;;;7.50;95.95
43804;BME280;29430;52.924;-2.388;2023-04-21T23:15:24;98552.31;;;7.44;96.10
43804;BME280;29430;52.924;-2.388;2023-04-21T23:20:17;98524.59;;;7.37;96.62
43804;BME280;29430;52.924;-2.388;2023-04-21T23:25:09;98521.53;;;7.33;95.94
43804;BME280;29430;52.924;-2.388;2023-04-21T23:30:01;98517.19;;;7.32;96.67
43804;BME280;29430;52.924;-2.388;2023-04-21T23:34:53;98511.06;;;7.25;96.75
43804;BME280;29430;52.924;-2.388;2023-04-21T23:39:44;98509.03;;;7.21;97.40
43804;BME280;29430;52.924;-2.388;2023-04-21T23:44:36;98498.09;;;7.15;97.10
43804;BME280;29430;52.924;-2.388;2023-04-21T23:49:28;98486.13;;;7.11;97.81
43804;BME280;29430;52.924;-2.388;2023-04-21T23:54:19;98477.88;;;7.06;97.94
43804;BME280;29430;52.924;-2.388;2023-04-21T23:59:11;98475.03;;;7.01;98.33
